1991 ERROL (1991083S11100)


On this page: IBTrACS data - Map and Plots - Positions - Intensities - Original source data

Summary

Start Mar 23
End Mar 31
Basin SI
LMI 110 kt
Sources jtwc_sh
bom
neumann
In WMO? Yes
Previous storm 1991 FATIMA (SI)
Previous in basin 1991 FATIMA (SI)
Concurrent storms 1991 TIM (WP)
1991 FATIMA (SI)
1991 ERROL (SI)
1991 G19091 (SI)
Next in basin 1991 G19091 (SI)
Next storm 1991 G19091 (SI)

top of page IBTrACS Data: File Access

top of page HURSAT Data: File Access

Image of storm

top of page Plots:

Map of storm track will not appear if FTP is down
Time series of cyclone Maximum Sustained Wind will not appear if FTP is down
Time series of cyclone Minimum Central Pressure will not appear if FTP is down

top of page Track Data:Position

jtwc_sh bom neumann
Date Lat Lon Lat Lon Lat Lon
1991-03-23 12:00:00 -11.0 99.6
1991-03-23 18:00:00 -11.0 99.6
1991-03-24 00:00:00 -10.2 99.6 -11.0 99.5 -10.2 99.6
1991-03-24 06:00:00 -10.2 99.4 -11.0 99.5 -10.2 99.4
1991-03-24 12:00:00 -10.2 99.3 -10.8 99.0 -10.2 99.3
1991-03-24 18:00:00 -10.3 99.1 -10.7 99.0 -10.3 99.1
1991-03-25 00:00:00 -10.5 99.0 -10.5 99.0 -10.5 99.0
1991-03-25 06:00:00 -10.5 99.3 -10.6 99.4 -10.5 99.3
1991-03-25 12:00:00 -10.4 99.6 -10.6 99.7 -10.4 99.6
1991-03-25 18:00:00 -10.5 99.9 -10.6 100.0 -10.5 99.9
1991-03-26 00:00:00 -10.7 100.2 -10.6 100.5 -10.7 100.2
1991-03-26 06:00:00 -11.0 100.6 -11.2 100.6 -11.0 100.6
1991-03-26 12:00:00 -11.3 101.0 -12.0 101.1 -11.3 101.0
1991-03-26 18:00:00 -11.8 101.3 -12.1 101.3 -11.8 101.3
1991-03-27 00:00:00 -12.2 101.5 -12.2 101.5 -12.2 101.5
1991-03-27 06:00:00 -12.6 101.7 -12.7 101.6 -12.6 101.7
1991-03-27 12:00:00 -13.9 101.8 -13.4 101.7 -13.9 101.8
1991-03-27 18:00:00 -13.3 101.7 -13.5 101.8 -13.3 101.7
1991-03-28 00:00:00 -13.6 101.2 -13.7 101.8 -13.6 101.2
1991-03-28 06:00:00 -13.9 100.7 -14.1 100.9 -13.9 100.7
1991-03-28 12:00:00 -14.3 99.8 -14.3 100.1 -14.3 99.8
1991-03-28 18:00:00 -14.6 98.8 -14.5 99.3 -14.6 98.8
1991-03-29 00:00:00 -15.0 97.8 -14.9 98.4 -15.0 97.8
1991-03-29 06:00:00 -15.3 97.0 -15.5 97.4 -15.3 97.0
1991-03-29 12:00:00 -15.6 96.1 -15.8 96.5 -15.6 96.1
jtwc_sh bom neumann
1991-03-29 18:00:00 -15.8 95.3 -16.1 95.5 -15.8 95.3
1991-03-30 00:00:00 -16.0 94.4 -16.3 94.5 -16.0 94.4
1991-03-30 06:00:00 -16.3 93.6 -16.5 93.8 -16.3 93.6
1991-03-30 12:00:00 -16.5 93.0 -16.8 93.4 -16.5 93.0
1991-03-30 18:00:00 -16.7 92.3 -17.0 93.1 -16.7 92.3
1991-03-31 00:00:00 -17.0 91.6 -17.2 92.8 -17.0 91.6
1991-03-31 06:00:00 -17.4 91.0 -17.4 92.6 -17.4 91.0
1991-03-31 12:00:00 -17.8 90.5 -17.8 90.5
1991-03-31 18:00:00 -18.2 90.2 -18.2 90.2

top of pageTrack Data:Intensity

jtwc_sh bom neumann
Date Wind Pres Wind Pres Wind Pres
1991-03-23 12:00:00 31. 1000.
1991-03-23 18:00:00 35. 998.
1991-03-24 00:00:00 25. 37. 996. 25.
1991-03-24 06:00:00 25. 41. 993. 25.
1991-03-24 12:00:00 30. 49. 988. 30.
1991-03-24 18:00:00 35. 58. 982. 35.
1991-03-25 00:00:00 45. 66. 976. 45.
1991-03-25 06:00:00 65. 74. 970. 65.
1991-03-25 12:00:00 90. 80. 965. 90.
1991-03-25 18:00:00 110. 84. 960. 110.
1991-03-26 00:00:00 110. 89. 955. 110.
1991-03-26 06:00:00 110. 95. 950. 110.
1991-03-26 12:00:00 110. 89. 955. 110.
1991-03-26 18:00:00 110. 89. 955. 110.
1991-03-27 00:00:00 105. 89. 955. 105.
1991-03-27 06:00:00 100. 84. 960. 100.
1991-03-27 12:00:00 90. 80. 965. 90.
1991-03-27 18:00:00 80. 74. 970. 80.
1991-03-28 00:00:00 70. 66. 975. 70.
1991-03-28 06:00:00 60. 66. 975. 60.
1991-03-28 12:00:00 55. 66. 975. 55.
1991-03-28 18:00:00 50. 64. 978. 50.
1991-03-29 00:00:00 45. 60. 980. 45.
1991-03-29 06:00:00 40. 54. 985. 40.
1991-03-29 12:00:00 40. 47. 990. 40.
jtwc_sh bom neumann
1991-03-29 18:00:00 35. 41. 993. 35.
1991-03-30 00:00:00 35. 37. 996. 35.
1991-03-30 06:00:00 35. 31. 1000. 35.
1991-03-30 12:00:00 30. 31. 1000. 30.
1991-03-30 18:00:00 30. 27. 1002. 30.
1991-03-31 00:00:00 30. 27. 1003. 30.
1991-03-31 06:00:00 25. 25. 1004. 25.
1991-03-31 12:00:00 25. 25.
1991-03-31 18:00:00 25. 25.

top of page Links to source data

Source Source file Format
jtwc_sh bsh181991.txt ATCF
bom IDCKMSTM0S.csv:Line=18235:ERROL CSV file (from Excel file)
neumann tracks.sh:Storm=917:ERROL:BSH181991:JTWC&BM600 HURDAT